Time,TemperatureF,DewpointF,PressureIn,WindDirection,WindDirectionDegrees,WindSpeedMPH,WindSpeedGustMPH,Humidity,HourlyPrecipIn,Conditions,Clouds,dailyrainin,SoftwareType,DateUTC
2013-01-09 00:10:00,28.4,27.2,30.23,SE,135,2.0,-999.0,95,-99.99,,,0.00,Acu-Link.com,2013-01-09 05:10:00,
2013-01-09 00:25:00,28.4,27.2,30.22,ESE,112,1.6,-999.0,95,-99.99,,,0.00,Acu-Link.com,2013-01-09 05:25:00,
2013-01-09 00:40:00,28.4,26.6,30.21,ESE,112,1.6,-999.0,93,-99.99,,,0.00,Acu-Link.com,2013-01-09 05:40:00,
2013-01-09 00:56:00,28.4,26.6,30.21,SSE,157,2.0,-999.0,93,-99.99,,,0.00,Acu-Link.com,2013-01-09 05:56:00,
2013-01-09 01:11:00,30.2,28.4,30.21,SE,135,2.0,-999.0,93,-99.99,,,0.00,Acu-Link.com,2013-01-09 06:11:00,
2013-01-09 01:26:00,30.2,28.4,30.21,SE,135,1.6,-999.0,93,-99.99,,,0.00,Acu-Link.com,2013-01-09 06:26:00,
2013-01-09 01:41:00,30.2,27.9,30.22,ESE,112,2.0,-999.0,91,-99.99,,,0.00,Acu-Link.com,2013-01-09 06:41:00,
2013-01-09 01:56:00,30.2,27.4,30.21,SE,135,2.7,-999.0,89,-99.99,,,0.00,Acu-Link.com,2013-01-09 06:56:00,
2013-01-09 02:12:00,32.0,28.3,30.21,ESE,112,1.1,-999.0,86,-99.99,,,0.00,Acu-Link.com,2013-01-09 07:12:00,
2013-01-09 02:27:00,32.0,28.3,30.20,ESE,112,2.0,-999.0,86,-99.99,,,0.00,Acu-Link.com,2013-01-09 07:27:00,
2013-01-09 02:42:00,33.8,27.7,30.20,SSE,157,3.6,-999.0,78,-99.99,,,0.00,Acu-Link.com,2013-01-09 07:42:00,
2013-01-09 02:57:00,33.8,26.7,30.20,South,180,3.6,-999.0,75,-99.99,,,0.00,Acu-Link.com,2013-01-09 07:57:00,
2013-01-09 03:13:00,33.8,26.1,30.19,SW,225,4.0,-999.0,73,-99.99,,,0.00,Acu-Link.com,2013-01-09 08:13:00,
2013-01-09 03:28:00,33.8,26.1,30.19,SW,225,3.1,-999.0,73,-99.99,,,0.00,Acu-Link.com,2013-01-09 08:28:00,
2013-01-09 03:43:00,35.6,27.5,30.19,SSE,157,2.0,-999.0,72,-99.99,,,0.00,Acu-Link.com,2013-01-09 08:43:00,
2013-01-09 03:59:00,35.6,27.1,30.19,ESE,112,2.7,-999.0,71,-99.99,,,0.00,Acu-Link.com,2013-01-09 08:59:00,
2013-01-09 04:14:00,35.6,27.5,30.18,SW,225,2.7,-999.0,72,-99.99,,,0.00,Acu-Link.com,2013-01-09 09:14:00,
2013-01-09 04:29:00,35.6,27.5,30.18,SE,135,2.7,-999.0,72,-99.99,,,0.00,Acu-Link.com,2013-01-09 09:29:00,
2013-01-09 04:44:00,35.6,27.8,30.17,East,90,2.0,-999.0,73,-99.99,,,0.00,Acu-Link.com,2013-01-09 09:44:00,
2013-01-09 04:59:00,35.6,27.5,30.16,SE,135,3.6,-999.0,72,-99.99,,,0.00,Acu-Link.com,2013-01-09 09:59:00,
2013-01-09 05:14:00,35.6,27.5,30.15,ESE,112,3.6,-999.0,72,-99.99,,,0.00,Acu-Link.com,2013-01-09 10:14:00,
2013-01-09 05:30:00,35.6,26.5,30.14,SSW,202,1.6,-999.0,69,-99.99,,,0.00,Acu-Link.com,2013-01-09 10:30:00,
2013-01-09 05:45:00,37.4,27.8,30.15,SE,135,2.0,-999.0,68,-99.99,,,0.00,Acu-Link.com,2013-01-09 10:45:00,
2013-01-09 06:00:00,37.4,27.1,30.15,ESE,112,2.0,-999.0,66,-99.99,,,0.00,Acu-Link.com,2013-01-09 11:00:00,
2013-01-09 06:16:00,37.4,27.5,30.15,SE,135,2.0,-999.0,67,-99.99,,,0.00,Acu-Link.com,2013-01-09 11:16:00,
2013-01-09 06:31:00,37.4,27.5,30.14,NNW,337,3.6,-999.0,67,-99.99,,,0.00,Acu-Link.com,2013-01-09 11:31:00,
2013-01-09 06:46:00,39.2,29.5,30.14,SW,225,3.1,-999.0,68,-99.99,,,0.00,Acu-Link.com,2013-01-09 11:46:00,
2013-01-09 07:02:00,41.0,31.3,30.15,SE,135,3.1,-999.0,68,-99.99,,,0.00,Acu-Link.com,2013-01-09 12:02:00,
2013-01-09 07:17:00,41.0,31.6,30.15,SW,225,3.1,-999.0,69,-99.99,,,0.00,Acu-Link.com,2013-01-09 12:17:00,
2013-01-09 07:32:00,41.0,31.6,30.15,West,270,2.7,-999.0,69,-99.99,,,0.00,Acu-Link.com,2013-01-09 12:32:00,
2013-01-09 07:47:00,41.0,32.3,30.15,East,90,2.7,-999.0,71,-99.99,,,0.00,Acu-Link.com,2013-01-09 12:47:00,
2013-01-09 08:03:00,39.2,32.6,30.17,South,180,1.6,-999.0,77,-99.99,,,0.01,Acu-Link.com,2013-01-09 13:03:00,
2013-01-09 08:18:00,37.4,33.0,30.17,SSW,202,3.1,-999.0,84,-99.99,,,0.04,Acu-Link.com,2013-01-09 13:18:00,
2013-01-09 08:33:00,37.4,33.3,30.16,South,180,2.7,-999.0,85,-99.99,,,0.04,Acu-Link.com,2013-01-09 13:33:00,
2013-01-09 08:48:00,37.4,33.3,30.14,East,90,2.7,-999.0,85,-99.99,,,0.04,Acu-Link.com,2013-01-09 13:48:00,
2013-01-09 09:04:00,37.4,33.0,30.15,SE,135,3.1,-999.0,84,-99.99,,,0.04,Acu-Link.com,2013-01-09 14:04:00,
2013-01-09 09:19:00,39.2,34.5,30.17,NE,45,2.0,-999.0,83,-99.99,,,0.04,Acu-Link.com,2013-01-09 14:19:00,
2013-01-09 09:34:00,41.0,35.9,30.17,SSW,202,2.7,-999.0,82,-99.99,,,0.04,Acu-Link.com,2013-01-09 14:34:00,
2013-01-09 09:49:00,41.0,35.6,30.18,South,180,2.7,-999.0,81,-99.99,,,0.04,Acu-Link.com,2013-01-09 14:49:00,
2013-01-09 10:05:00,42.8,36.4,30.17,North,0,1.1,-999.0,78,-99.99,,,0.04,Acu-Link.com,2013-01-09 15:05:00,
2013-01-09 10:20:00,42.8,36.4,30.17,SSW,202,2.7,-999.0,78,-99.99,,,0.04,Acu-Link.com,2013-01-09 15:20:00,
2013-01-09 10:35:00,42.8,35.4,30.18,SW,225,1.6,-999.0,75,-99.99,,,0.04,Acu-Link.com,2013-01-09 15:35:00,
2013-01-09 10:50:00,44.6,35.8,30.18,West,270,3.1,-999.0,71,-99.99,,,0.04,Acu-Link.com,2013-01-09 15:50:00,
2013-01-09 11:06:00,44.6,34.7,30.18,SSE,157,2.0,-999.0,68,-99.99,,,0.04,Acu-Link.com,2013-01-09 16:06:00,
2013-01-09 11:21:00,44.6,34.0,30.19,South,180,2.7,-999.0,66,-99.99,,,0.04,Acu-Link.com,2013-01-09 16:21:00,
2013-01-09 11:36:00,46.4,35.3,30.19,West,270,4.0,-999.0,65,-99.99,,,0.04,Acu-Link.com,2013-01-09 16:36:00,
2013-01-09 11:51:00,46.4,35.3,30.19,SW,225,5.6,-999.0,65,-99.99,,,0.04,Acu-Link.com,2013-01-09 16:51:00,
2013-01-09 12:06:00,46.4,34.9,30.19,WNW,292,12.3,-999.0,64,-99.99,,,0.04,Acu-Link.com,2013-01-09 17:06:00,
2013-01-09 12:22:00,46.4,34.1,30.19,West,270,2.7,-999.0,62,-99.99,,,0.04,Acu-Link.com,2013-01-09 17:22:00,
2013-01-09 12:37:00,46.4,33.7,30.18,SSW,202,4.7,-999.0,61,-99.99,,,0.04,Acu-Link.com,2013-01-09 17:37:00,
2013-01-09 12:52:00,46.4,33.7,30.17,SW,225,4.0,-999.0,61,-99.99,,,0.04,Acu-Link.com,2013-01-09 17:52:00,
2013-01-09 13:07:00,46.4,33.7,30.17,NE,45,2.7,-999.0,61,-99.99,,,0.04,Acu-Link.com,2013-01-09 18:07:00,
2013-01-09 13:23:00,46.4,34.5,30.17,SW,225,4.7,-999.0,63,-99.99,,,0.04,Acu-Link.com,2013-01-09 18:23:00,
2013-01-09 13:38:00,46.4,34.1,30.17,West,270,2.7,-999.0,62,-99.99,,,0.04,Acu-Link.com,2013-01-09 18:38:00,
2013-01-09 13:53:00,46.4,34.5,30.16,SSE,157,3.1,-999.0,63,-99.99,,,0.04,Acu-Link.com,2013-01-09 18:53:00,
2013-01-09 14:08:00,46.4,33.7,30.18,SW,225,3.1,-999.0,61,-99.99,,,0.04,Acu-Link.com,2013-01-09 19:08:00,
2013-01-09 14:23:00,46.4,33.7,30.18,WNW,292,8.3,-999.0,61,-99.99,,,0.04,Acu-Link.com,2013-01-09 19:23:00,
2013-01-09 14:39:00,44.6,32.0,30.19,South,180,3.6,-999.0,61,-99.99,,,0.04,Acu-Link.com,2013-01-09 19:39:00,
2013-01-09 14:54:00,46.4,33.3,30.20,SSW,202,2.7,-999.0,60,-99.99,,,0.04,Acu-Link.com,2013-01-09 19:54:00,
2013-01-09 15:09:00,44.6,31.6,30.20,WSW,247,2.7,-999.0,60,-99.99,,,0.04,Acu-Link.com,2013-01-09 20:09:00,
2013-01-09 15:24:00,44.6,32.4,30.20,South,180,3.1,-999.0,62,-99.99,,,0.04,Acu-Link.com,2013-01-09 20:24:00,
2013-01-09 15:39:00,44.6,32.8,30.22,WSW,247,2.7,-999.0,63,-99.99,,,0.04,Acu-Link.com,2013-01-09 20:39:00,
2013-01-09 15:55:00,44.6,33.2,30.23,West,270,2.0,-999.0,64,-99.99,,,0.04,Acu-Link.com,2013-01-09 20:55:00,
2013-01-09 16:10:00,42.8,32.2,30.22,WNW,292,5.1,-999.0,66,-99.99,,,0.04,Acu-Link.com,2013-01-09 21:10:00,
2013-01-09 16:25:00,42.8,32.6,30.24,SW,225,3.6,-999.0,67,-99.99,,,0.04,Acu-Link.com,2013-01-09 21:25:00,
2013-01-09 16:41:00,42.8,33.0,30.26,SW,225,1.6,-999.0,68,-99.99,,,0.04,Acu-Link.com,2013-01-09 21:41:00,
2013-01-09 16:56:00,42.8,33.3,30.26,SSW,202,2.7,-999.0,69,-99.99,,,0.04,Acu-Link.com,2013-01-09 21:56:00,
2013-01-09 17:11:00,41.0,32.0,30.26,NW,315,3.6,-999.0,70,-99.99,,,0.04,Acu-Link.com,2013-01-09 22:11:00,
2013-01-09 17:27:00,41.0,32.3,30.27,South,180,2.7,-999.0,71,-99.99,,,0.04,Acu-Link.com,2013-01-09 22:27:00,
2013-01-09 17:42:00,41.0,32.7,30.28,West,270,0.0,-999.0,72,-99.99,,,0.04,Acu-Link.com,2013-01-09 22:42:00,
2013-01-09 17:57:00,39.2,31.3,30.28,West,270,4.0,-999.0,73,-99.99,,,0.04,Acu-Link.com,2013-01-09 22:57:00,
2013-01-09 18:13:00,39.2,31.6,30.30,SE,135,4.7,-999.0,74,-99.99,,,0.04,Acu-Link.com,2013-01-09 23:13:00,
2013-01-09 18:28:00,37.4,29.9,30.31,SW,225,1.1,-999.0,74,-99.99,,,0.04,Acu-Link.com,2013-01-09 23:28:00,
2013-01-09 18:43:00,37.4,30.2,30.32,West,270,3.1,-999.0,75,-99.99,,,0.04,Acu-Link.com,2013-01-09 23:43:00,
2013-01-09 18:58:00,37.4,30.2,30.33,WSW,247,2.7,-999.0,75,-99.99,,,0.04,Acu-Link.com,2013-01-09 23:58:00,
2013-01-09 19:14:00,37.4,30.2,30.34,ESE,112,2.0,-999.0,75,-99.99,,,0.04,Acu-Link.com,2013-01-10 00:14:00,
2013-01-09 19:29:00,37.4,30.5,30.35,SW,225,2.0,-999.0,76,-99.99,,,0.04,Acu-Link.com,2013-01-10 00:29:00,
2013-01-09 19:44:00,37.4,30.5,30.36,SSW,202,1.6,-999.0,76,-99.99,,,0.04,Acu-Link.com,2013-01-10 00:44:00,
2013-01-09 20:00:00,37.4,30.5,30.36,SW,225,3.1,-999.0,76,-99.99,,,0.04,Acu-Link.com,2013-01-10 01:00:00,
2013-01-09 20:15:00,37.4,30.9,30.37,WSW,247,2.7,-999.0,77,-99.99,,,0.04,Acu-Link.com,2013-01-10 01:15:00,
2013-01-09 20:30:00,35.6,29.1,30.37,WNW,292,6.7,-999.0,77,-99.99,,,0.04,Acu-Link.com,2013-01-10 01:30:00,
2013-01-09 20:46:00,35.6,29.1,30.38,WNW,292,1.1,-999.0,77,-99.99,,,0.04,Acu-Link.com,2013-01-10 01:46:00,
2013-01-09 21:01:00,35.6,29.1,30.39,SSE,157,1.6,-999.0,77,-99.99,,,0.04,Acu-Link.com,2013-01-10 02:01:00,
2013-01-09 21:16:00,35.6,29.4,30.39,West,270,3.1,-999.0,78,-99.99,,,0.04,Acu-Link.com,2013-01-10 02:16:00,
2013-01-09 21:31:00,35.6,29.7,30.40,SW,225,4.0,-999.0,79,-99.99,,,0.04,Acu-Link.com,2013-01-10 02:31:00,
2013-01-09 21:47:00,35.6,29.7,30.40,West,270,1.6,-999.0,79,-99.99,,,0.04,Acu-Link.com,2013-01-10 02:47:00,
2013-01-09 22:02:00,35.6,29.7,30.41,ENE,67,0.0,-999.0,79,-99.99,,,0.04,Acu-Link.com,2013-01-10 03:02:00,
2013-01-09 22:17:00,35.6,29.7,30.42,West,270,2.0,-999.0,79,-99.99,,,0.04,Acu-Link.com,2013-01-10 03:17:00,
2013-01-09 22:32:00,33.8,28.6,30.42,NW,315,1.6,-999.0,81,-99.99,,,0.04,Acu-Link.com,2013-01-10 03:32:00,
2013-01-09 22:47:00,33.8,28.6,30.43,SW,225,1.6,-999.0,81,-99.99,,,0.04,Acu-Link.com,2013-01-10 03:47:00,
2013-01-09 23:02:00,33.8,28.6,30.44,West,270,0.0,-999.0,81,-99.99,,,0.04,Acu-Link.com,2013-01-10 04:02:00,
2013-01-09 23:18:00,33.8,28.6,30.45,West,270,1.6,-999.0,81,-99.99,,,0.04,Acu-Link.com,2013-01-10 04:18:00,
2013-01-09 23:33:00,33.8,28.9,30.46,East,90,0.0,-999.0,82,-99.99,,,0.04,Acu-Link.com,2013-01-10 04:33:00,
2013-01-09 23:48:00,33.8,29.2,30.46,NW,315,0.0,-999.0,83,-99.99,,,0.04,Acu-Link.com,2013-01-10 04:48:00,